createdAt,value
2023-05-03T00:01:41.317Z,8.32
2023-05-03T00:04:45.647Z,7.57
2023-05-03T00:07:47.698Z,8.25
2023-05-03T00:10:49.775Z,8.17
2023-05-03T00:13:51.784Z,8.40
2023-05-03T00:16:53.898Z,8.50
2023-05-03T00:19:56.381Z,7.97
2023-05-03T00:22:58.456Z,8.32
2023-05-03T00:26:01.032Z,8.13
2023-05-03T00:29:03.588Z,8.33
2023-05-03T00:32:05.748Z,8.65
2023-05-03T00:35:08.016Z,8.52
2023-05-03T00:38:10.461Z,8.88
2023-05-03T00:41:13.495Z,8.10
2023-05-03T00:44:15.455Z,7.97
2023-05-03T00:47:17.680Z,8.30
2023-05-03T00:50:20.913Z,7.65
2023-05-03T00:53:23.513Z,8.25
2023-05-03T00:56:25.945Z,8.90
2023-05-03T00:59:28.273Z,8.00
2023-05-03T01:02:30.995Z,8.57
2023-05-03T01:05:33.986Z,8.35
2023-05-03T01:08:59.390Z,8.27
2023-05-03T01:12:21.700Z,7.90
2023-05-03T01:15:26.479Z,8.43
2023-05-03T01:18:31.990Z,9.38
2023-05-03T01:21:34.182Z,8.18
2023-05-03T01:24:36.681Z,8.73
2023-05-03T01:27:39.510Z,8.10
2023-05-03T01:30:41.886Z,8.27
2023-05-03T01:34:05.906Z,7.82
2023-05-03T01:37:07.843Z,7.93
2023-05-03T01:40:10.086Z,8.57
2023-05-03T01:43:12.597Z,8.17
2023-05-03T01:46:15.915Z,7.53
2023-05-03T01:49:19.874Z,7.85
2023-05-03T01:52:23.192Z,8.73
2023-05-03T01:55:25.740Z,8.18
2023-05-03T01:58:27.778Z,9.10
2023-05-03T02:01:29.773Z,9.17
2023-05-03T02:04:32.437Z,8.80
2023-05-03T02:07:34.589Z,9.48
2023-05-03T02:10:36.902Z,9.85
2023-05-03T02:13:39.581Z,9.00
2023-05-03T02:16:41.837Z,8.60
2023-05-03T02:19:44.413Z,10.15
2023-05-03T02:22:46.382Z,9.35
2023-05-03T02:25:49.173Z,9.35
2023-05-03T02:28:51.353Z,8.40
2023-05-03T02:31:53.702Z,9.43
2023-05-03T02:34:56.152Z,8.80
2023-05-03T02:37:59.711Z,9.15
2023-05-03T02:41:01.772Z,9.73
2023-05-03T02:44:06.075Z,9.23
2023-05-03T02:47:09.495Z,8.93
2023-05-03T02:50:15.134Z,9.95
2023-05-03T02:53:17.207Z,9.43
2023-05-03T02:56:20.923Z,9.57
2023-05-03T02:59:23.406Z,9.13
2023-05-03T03:02:26.715Z,10.00
2023-05-03T03:05:29.416Z,8.60
2023-05-03T03:08:31.727Z,8.50
2023-05-03T03:11:36.912Z,8.40
2023-05-03T03:14:39.008Z,7.77
2023-05-03T03:17:41.357Z,8.57
2023-05-03T03:20:45.863Z,7.68
2023-05-03T03:23:48.377Z,8.45
2023-05-03T03:26:50.624Z,8.50
2023-05-03T03:29:52.691Z,7.90
2023-05-03T03:32:54.815Z,8.40
2023-05-03T03:36:06.737Z,7.70
2023-05-03T03:39:12.267Z,7.67
2023-05-03T03:42:15.786Z,8.13
2023-05-03T03:45:18.169Z,8.63
2023-05-03T03:48:20.529Z,7.97
2023-05-03T03:51:23.354Z,8.50
2023-05-03T03:54:25.777Z,8.03
2023-05-03T03:57:30.372Z,8.00
2023-05-03T04:00:34.261Z,7.88
2023-05-03T04:03:46.242Z,7.30
2023-05-03T04:06:49.211Z,6.70
2023-05-03T04:09:53.204Z,7.13
2023-05-03T04:12:55.990Z,6.82
2023-05-03T04:15:58.217Z,6.53
2023-05-03T04:19:01.717Z,6.97
2023-05-03T04:22:05.817Z,6.87
2023-05-03T04:25:10.478Z,6.20
2023-05-03T04:28:13.798Z,6.72
2023-05-03T04:31:21.238Z,6.57
2023-05-03T04:34:26.497Z,7.50
2023-05-03T04:37:31.012Z,7.03
2023-05-03T04:40:34.692Z,6.35
2023-05-03T04:43:41.805Z,6.72
2023-05-03T04:46:44.563Z,6.50
2023-05-03T04:49:47.381Z,6.40
2023-05-03T04:52:49.999Z,7.43
2023-05-03T04:55:53.044Z,7.20
2023-05-03T04:58:56.366Z,7.50
2023-05-03T05:01:59.722Z,7.73
2023-05-03T05:05:02.311Z,7.50
2023-05-03T05:08:04.902Z,6.75
2023-05-03T05:11:13.502Z,7.15
2023-05-03T05:14:15.811Z,7.03
2023-05-03T05:17:18.089Z,6.50
2023-05-03T05:20:21.911Z,7.28
2023-05-03T05:23:25.791Z,7.00
2023-05-03T05:26:28.173Z,7.30
2023-05-03T05:29:31.251Z,7.03
2023-05-03T05:32:34.021Z,7.07
2023-05-03T05:35:36.970Z,7.05
2023-05-03T05:38:40.689Z,7.57
2023-05-03T05:41:43.609Z,7.63
2023-05-03T05:44:47.574Z,7.18
2023-05-03T05:47:50.590Z,7.07
2023-05-03T05:50:52.825Z,7.40
2023-05-03T05:53:54.926Z,8.50
2023-05-03T05:56:57.645Z,7.22
2023-05-03T05:59:59.918Z,6.38
2023-05-03T06:03:02.460Z,6.90
2023-05-03T06:06:05.704Z,6.43
2023-05-03T06:09:17.234Z,5.97
2023-05-03T06:12:35.046Z,6.20
2023-05-03T06:15:37.313Z,5.60
2023-05-03T06:18:40.355Z,5.67
2023-05-03T06:21:42.845Z,5.85
2023-05-03T06:24:46.169Z,5.82
2023-05-03T06:27:48.434Z,5.22
2023-05-03T06:30:52.653Z,5.70
2023-05-03T06:33:54.806Z,6.03
2023-05-03T06:36:57.669Z,6.18
2023-05-03T06:40:05.472Z,5.50
2023-05-03T06:43:08.074Z,5.65
2023-05-03T06:46:14.234Z,4.97
2023-05-03T06:49:16.426Z,5.40
2023-05-03T06:52:18.787Z,5.78
2023-05-03T06:55:21.195Z,4.97
2023-05-03T06:58:24.194Z,5.20
2023-05-03T07:01:26.355Z,4.80
2023-05-03T07:04:30.288Z,4.80
2023-05-03T07:07:33.480Z,5.18
2023-05-03T07:10:36.555Z,4.88
2023-05-03T07:13:38.750Z,5.28
2023-05-03T07:16:40.878Z,4.95
2023-05-03T07:19:43.808Z,5.10
2023-05-03T07:22:46.233Z,6.00
2023-05-03T07:25:48.520Z,5.07
2023-05-03T07:28:50.640Z,6.00
2023-05-03T07:31:53.799Z,5.60
2023-05-03T07:34:56.272Z,5.77
2023-05-03T07:37:58.837Z,6.03
2023-05-03T07:41:01.362Z,5.45
2023-05-03T07:44:04.165Z,5.85
2023-05-03T07:47:06.231Z,5.90
2023-05-03T07:50:09.582Z,5.47
2023-05-03T07:53:12.347Z,5.50
2023-05-03T07:56:14.697Z,6.55
2023-05-03T07:59:16.743Z,5.80
2023-05-03T08:02:18.984Z,6.50
2023-05-03T08:05:21.840Z,7.97
2023-05-03T08:08:24.518Z,6.40
2023-05-03T08:11:29.766Z,5.93
2023-05-03T08:14:33.834Z,6.78
2023-05-03T08:17:45.831Z,5.40
2023-05-03T08:20:49.288Z,5.60
2023-05-03T08:23:51.795Z,5.28
2023-05-03T08:26:53.884Z,5.13
2023-05-03T08:29:56.066Z,5.30
2023-05-03T08:32:58.200Z,5.45
2023-05-03T08:36:00.548Z,5.10
2023-05-03T08:39:06.554Z,5.30
2023-05-03T08:42:08.794Z,5.68
2023-05-03T08:45:11.871Z,4.90
2023-05-03T08:48:14.390Z,5.00
2023-05-03T08:51:17.073Z,5.10
2023-05-03T08:54:21.378Z,7.15
2023-05-03T08:57:23.855Z,4.63
2023-05-03T09:00:29.996Z,3.70
2023-05-03T09:03:32.664Z,4.15
2023-05-03T09:06:35.210Z,3.97
2023-05-03T09:09:37.446Z,3.90
2023-05-03T09:13:02.078Z,3.95
2023-05-03T09:16:24.764Z,4.45
2023-05-03T09:19:27.048Z,4.38
2023-05-03T09:22:32.537Z,4.20
2023-05-03T09:26:03.869Z,4.07
2023-05-03T09:29:06.068Z,3.90
2023-05-03T09:32:08.858Z,3.90
2023-05-03T09:35:11.268Z,4.28
2023-05-03T09:38:24.436Z,3.60
2023-05-03T09:41:29.709Z,4.35
2023-05-03T09:44:49.006Z,3.33
2023-05-03T09:47:52.685Z,3.38
2023-05-03T09:50:54.870Z,3.00
2023-05-03T09:53:57.608Z,2.97
2023-05-03T09:57:00.917Z,3.78
2023-05-03T10:00:03.746Z,3.35
2023-05-03T10:03:18.936Z,3.20
2023-05-03T10:06:21.877Z,3.45
2023-05-03T10:09:29.099Z,3.20
2023-05-03T10:12:31.487Z,3.15
2023-05-03T10:15:42.109Z,3.63
2023-05-03T10:18:46.570Z,3.50
2023-05-03T10:22:07.850Z,3.08
2023-05-03T10:25:10.877Z,3.10
2023-05-03T10:28:13.285Z,3.05
2023-05-03T10:31:36.922Z,3.33
2023-05-03T10:34:40.400Z,3.47
2023-05-03T10:37:43.064Z,3.30
2023-05-03T10:40:45.110Z,3.13
2023-05-03T10:43:47.228Z,3.17
2023-05-03T10:46:49.331Z,3.45
2023-05-03T10:50:10.549Z,2.83
2023-05-03T10:53:35.642Z,3.00
2023-05-03T10:56:53.663Z,2.90
2023-05-03T10:59:55.999Z,3.95
2023-05-03T11:02:58.255Z,3.25
2023-05-03T11:06:01.153Z,4.10
2023-05-03T11:09:09.507Z,3.55
2023-05-03T11:12:11.862Z,3.40
2023-05-03T11:15:14.386Z,3.33
2023-05-03T11:18:16.916Z,3.15
2023-05-03T11:21:19.086Z,3.13
2023-05-03T11:24:21.623Z,3.83
2023-05-03T11:27:24.049Z,3.37
2023-05-03T11:30:26.616Z,3.17
2023-05-03T11:33:30.988Z,3.58
2023-05-03T11:36:33.071Z,3.50
2023-05-03T11:39:36.108Z,3.75
2023-05-03T11:42:50.852Z,3.20
2023-05-03T11:45:54.805Z,3.65
2023-05-03T11:48:57.508Z,3.47
2023-05-03T11:52:00.204Z,3.58
2023-05-03T11:55:05.433Z,3.75
2023-05-03T11:58:09.308Z,3.87
2023-05-03T12:01:11.377Z,4.00
2023-05-03T12:04:15.013Z,3.53
2023-05-03T12:07:20.018Z,3.70
2023-05-03T12:10:26.835Z,3.72
2023-05-03T12:13:38.847Z,3.77
2023-05-03T12:16:50.981Z,3.92
2023-05-03T12:20:11.024Z,3.53
2023-05-03T12:23:17.873Z,4.90
2023-05-03T12:26:20.585Z,4.22
2023-05-03T12:29:24.869Z,3.97
2023-05-03T12:32:27.161Z,3.97
2023-05-03T12:35:31.249Z,4.30
2023-05-03T12:38:37.570Z,5.60
2023-05-03T12:42:06.147Z,5.13
2023-05-03T12:45:04.707Z,4.20
2023-05-03T12:48:07.404Z,4.82
2023-05-03T12:54:18.632Z,5.03
2023-05-03T12:57:23.668Z,4.90
2023-05-03T13:00:32.715Z,6.37
2023-05-03T13:03:43.536Z,6.63
2023-05-03T13:06:57.808Z,5.03
2023-05-03T13:13:06.886Z,5.15
2023-05-03T13:16:09.299Z,5.00
2023-05-03T13:19:11.812Z,5.25
2023-05-03T13:22:14.484Z,6.28
2023-05-03T13:25:16.557Z,5.88
2023-05-03T13:28:24.284Z,6.65
2023-05-03T13:31:29.094Z,5.73
2023-05-03T13:34:31.999Z,5.93
2023-05-03T13:37:34.106Z,6.03
2023-05-03T13:40:36.209Z,5.90
2023-05-03T13:43:38.630Z,6.35
2023-05-03T13:46:41.416Z,5.70
2023-05-03T13:49:44.208Z,6.00
2023-05-03T13:52:46.872Z,6.43
2023-05-03T13:55:49.180Z,6.00
2023-05-03T13:58:52.284Z,6.53
2023-05-03T14:01:55.753Z,5.63
2023-05-03T14:04:58.142Z,5.97
2023-05-03T14:08:02.556Z,5.95
2023-05-03T14:11:21.623Z,6.28
2023-05-03T14:14:26.624Z,6.10
2023-05-03T14:17:29.323Z,6.37
2023-05-03T14:20:31.591Z,6.57
2023-05-03T14:23:34.038Z,6.13
2023-05-03T14:26:37.350Z,5.90
2023-05-03T14:29:39.627Z,6.25
2023-05-03T14:32:42.170Z,5.87
2023-05-03T14:35:45.143Z,5.82
2023-05-03T14:38:47.487Z,6.22
2023-05-03T14:41:50.220Z,5.90
2023-05-03T14:44:52.359Z,5.68
2023-05-03T14:47:54.490Z,5.60
2023-05-03T14:50:56.669Z,6.18
2023-05-03T14:54:00.739Z,5.75
2023-05-03T14:57:04.495Z,5.55
2023-05-03T15:00:14.044Z,5.97
2023-05-03T15:03:16.677Z,5.90
2023-05-03T15:06:25.985Z,5.45
2023-05-03T15:09:28.386Z,5.75
2023-05-03T15:12:31.161Z,5.93
2023-05-03T15:15:33.260Z,5.28
2023-05-03T15:18:36.252Z,5.37
2023-05-03T15:21:48.293Z,5.97
2023-05-03T15:24:50.778Z,5.47
2023-05-03T15:27:52.884Z,5.32
2023-05-03T15:30:55.055Z,5.28
2023-05-03T15:33:57.168Z,4.70
2023-05-03T15:36:59.329Z,5.38
2023-05-03T15:40:01.829Z,4.53
2023-05-03T15:43:18.249Z,4.38
2023-05-03T15:46:58.595Z,4.28
2023-05-03T15:50:21.936Z,4.27
2023-05-03T15:53:29.465Z,3.72
2023-05-03T15:56:32.297Z,4.13
2023-05-03T15:59:37.313Z,4.85
2023-05-03T16:02:40.452Z,4.57
2023-05-03T16:05:42.579Z,4.17
2023-05-03T16:08:52.551Z,4.20
2023-05-03T16:11:59.983Z,4.13
2023-05-03T16:15:21.678Z,4.10
2023-05-03T16:18:24.408Z,4.35
2023-05-03T16:21:26.799Z,4.67
2023-05-03T16:24:29.145Z,4.88
2023-05-03T16:27:31.261Z,4.78
2023-05-03T16:30:33.789Z,4.95
2023-05-03T16:33:35.813Z,5.22
2023-05-03T16:36:42.782Z,4.27
2023-05-03T16:39:45.567Z,4.68
2023-05-03T16:42:48.669Z,4.50
2023-05-03T16:46:00.295Z,4.35
2023-05-03T16:49:02.849Z,4.40
2023-05-03T16:52:04.991Z,4.03
2023-05-03T16:55:09.887Z,4.18
2023-05-03T16:58:12.343Z,4.50
2023-05-03T17:01:14.626Z,4.20
2023-05-03T17:04:16.785Z,4.38
2023-05-03T17:07:18.748Z,4.30
2023-05-03T17:10:22.653Z,4.53
2023-05-03T17:13:24.955Z,4.63
2023-05-03T17:16:27.270Z,4.35
2023-05-03T17:19:30.780Z,4.50
2023-05-03T17:22:33.550Z,4.70
2023-05-03T17:25:36.298Z,5.13
2023-05-03T17:28:38.404Z,5.05
2023-05-03T17:31:40.523Z,5.20
2023-05-03T17:34:42.865Z,5.47
2023-05-03T17:37:45.072Z,5.90
2023-05-03T17:40:47.585Z,6.32
2023-05-03T17:43:51.458Z,6.15
2023-05-03T17:46:53.651Z,5.55
2023-05-03T17:49:55.768Z,6.07
2023-05-03T17:52:58.265Z,5.80
2023-05-03T17:56:00.396Z,5.55
2023-05-03T17:59:03.699Z,5.65
2023-05-03T18:02:05.764Z,5.47
2023-05-03T18:05:08.437Z,6.00
2023-05-03T18:08:10.940Z,5.60
2023-05-03T18:11:13.343Z,6.20
2023-05-03T18:14:15.440Z,7.43
2023-05-03T18:17:17.957Z,6.82
2023-05-03T18:20:20.478Z,5.93
2023-05-03T18:23:23.043Z,5.80
2023-05-03T18:26:25.468Z,5.53
2023-05-03T18:29:27.950Z,6.07
2023-05-03T18:32:30.099Z,5.28
2023-05-03T18:35:32.618Z,5.53
2023-05-03T18:38:34.643Z,5.03
2023-05-03T18:41:37.677Z,5.60
2023-05-03T18:44:39.770Z,5.63
2023-05-03T18:47:42.354Z,6.35
2023-05-03T18:50:45.279Z,6.53
2023-05-03T18:53:47.264Z,6.30
2023-05-03T18:56:49.357Z,5.90
2023-05-03T19:00:00.020Z,6.45
2023-05-03T19:03:04.171Z,6.30
2023-05-03T19:06:08.969Z,6.32
2023-05-03T19:09:11.978Z,7.00
2023-05-03T19:12:14.159Z,6.35
2023-05-03T19:15:16.671Z,6.25
2023-05-03T19:18:18.699Z,6.45
2023-05-03T19:21:20.906Z,6.13
2023-05-03T19:24:22.893Z,6.03
2023-05-03T19:27:25.379Z,6.22
2023-05-03T19:30:27.314Z,6.32
2023-05-03T19:33:29.820Z,6.43
2023-05-03T19:36:31.977Z,6.63
2023-05-03T19:39:35.831Z,6.13
2023-05-03T19:42:37.943Z,6.45
2023-05-03T19:45:43.543Z,6.60
2023-05-03T19:48:45.498Z,7.13
2023-05-03T19:51:48.938Z,6.88
2023-05-03T19:54:51.299Z,6.80
2023-05-03T19:57:53.745Z,6.82
2023-05-03T20:00:57.624Z,6.70
2023-05-03T20:03:59.896Z,6.55
2023-05-03T20:07:02.006Z,6.43
2023-05-03T20:10:05.404Z,6.60
2023-05-03T20:13:08.376Z,6.68
2023-05-03T20:16:10.522Z,6.60
2023-05-03T20:19:13.333Z,7.03
2023-05-03T20:22:16.335Z,6.25
2023-05-03T20:25:18.296Z,6.63
2023-05-03T20:28:20.684Z,5.63
2023-05-03T20:31:22.829Z,6.68
2023-05-03T20:34:24.804Z,6.35
2023-05-03T20:37:26.969Z,7.80
2023-05-03T20:40:29.066Z,11.43
2023-05-03T20:43:31.529Z,9.98
2023-05-03T20:46:35.232Z,8.95
2023-05-03T20:49:38.910Z,8.27
2023-05-03T20:52:41.368Z,8.38
2023-05-03T20:55:43.396Z,7.60
2023-05-03T20:58:45.591Z,8.18
2023-05-03T21:01:48.015Z,6.82
2023-05-03T21:04:50.111Z,8.20
2023-05-03T21:07:52.966Z,7.57
2023-05-03T21:10:56.848Z,7.13
2023-05-03T21:14:05.001Z,7.22
2023-05-03T21:17:08.840Z,7.60
2023-05-03T21:20:11.143Z,7.25
2023-05-03T21:23:13.615Z,7.25
2023-05-03T21:26:16.128Z,7.57
2023-05-03T21:29:18.112Z,7.40
2023-05-03T21:32:20.136Z,7.75
2023-05-03T21:35:22.476Z,7.88
2023-05-03T21:38:24.988Z,8.00
2023-05-03T21:41:27.086Z,7.20
2023-05-03T21:44:29.581Z,7.10
2023-05-03T21:47:31.853Z,13.60
2023-05-03T21:50:33.832Z,15.60
2023-05-03T21:53:36.257Z,10.40
2023-05-03T21:56:38.211Z,9.20
2023-05-03T21:59:40.619Z,9.02
2023-05-03T22:02:42.999Z,8.40
2023-05-03T22:05:47.894Z,7.97
2023-05-03T22:08:49.997Z,8.77
2023-05-03T22:11:52.325Z,7.57
2023-05-03T22:14:54.720Z,7.80
2023-05-03T22:17:56.876Z,7.88
2023-05-03T22:20:58.916Z,8.23
2023-05-03T22:24:01.085Z,8.63
2023-05-03T22:27:03.803Z,7.70
2023-05-03T22:30:06.412Z,8.07
2023-05-03T22:33:08.615Z,7.63
2023-05-03T22:36:10.927Z,7.80
2023-05-03T22:39:12.992Z,7.97
2023-05-03T22:42:16.093Z,7.30
2023-05-03T22:45:18.051Z,7.72
2023-05-03T22:48:20.499Z,11.13
2023-05-03T22:51:22.502Z,12.73
2023-05-03T22:54:25.297Z,14.00
2023-05-03T22:57:27.470Z,11.40
2023-05-03T23:00:29.489Z,11.75
2023-05-03T23:03:32.181Z,11.30
2023-05-03T23:06:34.743Z,11.48
2023-05-03T23:09:36.796Z,9.98
2023-05-03T23:12:39.202Z,9.23
2023-05-03T23:15:41.267Z,10.13
2023-05-03T23:18:43.311Z,9.60
2023-05-03T23:21:51.852Z,9.02
2023-05-03T23:24:54.197Z,9.43
2023-05-03T23:27:56.665Z,9.37
2023-05-03T23:30:59.655Z,9.30
2023-05-03T23:34:04.995Z,10.25
2023-05-03T23:37:07.129Z,10.82
2023-05-03T23:40:09.332Z,11.10
2023-05-03T23:43:11.327Z,10.90
2023-05-03T23:46:13.893Z,11.05
2023-05-03T23:49:16.254Z,11.65
2023-05-03T23:52:19.974Z,11.00
2023-05-03T23:55:21.951Z,11.55
2023-05-03T23:58:23.955Z,9.97
